sensor_id;sensor_type;location;lat;lon;timestamp;P1;durP1;ratioP1;P2;durP2;ratioP2
4529;SDS011;2277;51.626;7.516;2023-10-13T00:02:03;12.80;;;7.27;;
4529;SDS011;2277;51.626;7.516;2023-10-13T00:04:30;8.43;;;6.83;;
4529;SDS011;2277;51.626;7.516;2023-10-13T00:07:00;11.30;;;8.47;;
4529;SDS011;2277;51.626;7.516;2023-10-13T00:09:28;11.00;;;7.87;;
4529;SDS011;2277;51.626;7.516;2023-10-13T00:12:00;9.60;;;6.77;;
4529;SDS011;2277;51.626;7.516;2023-10-13T00:14:26;11.20;;;7.77;;
4529;SDS011;2277;51.626;7.516;2023-10-13T00:17:05;10.03;;;6.43;;
4529;SDS011;2277;51.626;7.516;2023-10-13T00:19:40;17.93;;;8.67;;
4529;SDS011;2277;51.626;7.516;2023-10-13T00:22:14;12.17;;;7.30;;
4529;SDS011;2277;51.626;7.516;2023-10-13T00:24:44;11.03;;;7.40;;
4529;SDS011;2277;51.626;7.516;2023-10-13T00:27:20;11.60;;;6.23;;
4529;SDS011;2277;51.626;7.516;2023-10-13T00:29:59;10.10;;;6.60;;
4529;SDS011;2277;51.626;7.516;2023-10-13T00:32:45;12.63;;;9.63;;
4529;SDS011;2277;51.626;7.516;2023-10-13T00:35:15;15.57;;;7.07;;
4529;SDS011;2277;51.626;7.516;2023-10-13T00:37:52;7.57;;;5.70;;
4529;SDS011;2277;51.626;7.516;2023-10-13T00:40:19;13.67;;;6.50;;
4529;SDS011;2277;51.626;7.516;2023-10-13T00:43:00;7.00;;;6.07;;
4529;SDS011;2277;51.626;7.516;2023-10-13T00:45:47;7.13;;;5.47;;
4529;SDS011;2277;51.626;7.516;2023-10-13T00:48:25;10.80;;;6.73;;
4529;SDS011;2277;51.626;7.516;2023-10-13T00:51:05;10.37;;;8.03;;
4529;SDS011;2277;51.626;7.516;2023-10-13T00:53:32;9.43;;;6.93;;
4529;SDS011;2277;51.626;7.516;2023-10-13T00:56:02;10.53;;;7.00;;
4529;SDS011;2277;51.626;7.516;2023-10-13T00:58:35;8.07;;;5.70;;
4529;SDS011;2277;51.626;7.516;2023-10-13T01:01:04;10.53;;;6.20;;
4529;SDS011;2277;51.626;7.516;2023-10-13T01:06:17;8.30;;;6.30;;
4529;SDS011;2277;51.626;7.516;2023-10-13T01:08:47;11.40;;;6.83;;
4529;SDS011;2277;51.626;7.516;2023-10-13T01:11:16;10.57;;;5.73;;
4529;SDS011;2277;51.626;7.516;2023-10-13T01:13:48;14.53;;;6.73;;
4529;SDS011;2277;51.626;7.516;2023-10-13T01:16:16;8.53;;;5.87;;
4529;SDS011;2277;51.626;7.516;2023-10-13T01:18:42;8.63;;;6.13;;
4529;SDS011;2277;51.626;7.516;2023-10-13T01:21:15;7.60;;;5.93;;
4529;SDS011;2277;51.626;7.516;2023-10-13T01:23:44;10.00;;;5.13;;
4529;SDS011;2277;51.626;7.516;2023-10-13T01:26:12;7.30;;;5.57;;
4529;SDS011;2277;51.626;7.516;2023-10-13T01:28:43;7.60;;;5.80;;
4529;SDS011;2277;51.626;7.516;2023-10-13T01:31:11;12.83;;;5.80;;
4529;SDS011;2277;51.626;7.516;2023-10-13T01:33:41;7.90;;;5.13;;
4529;SDS011;2277;51.626;7.516;2023-10-13T01:36:07;10.87;;;6.13;;
4529;SDS011;2277;51.626;7.516;2023-10-13T01:38:32;7.80;;;5.60;;
4529;SDS011;2277;51.626;7.516;2023-10-13T01:40:58;10.07;;;4.93;;
4529;SDS011;2277;51.626;7.516;2023-10-13T01:43:24;9.70;;;6.20;;
4529;SDS011;2277;51.626;7.516;2023-10-13T01:45:50;9.37;;;6.30;;
4529;SDS011;2277;51.626;7.516;2023-10-13T01:48:16;9.00;;;5.60;;
4529;SDS011;2277;51.626;7.516;2023-10-13T01:50:44;14.13;;;6.50;;
4529;SDS011;2277;51.626;7.516;2023-10-13T01:53:20;9.40;;;6.07;;
4529;SDS011;2277;51.626;7.516;2023-10-13T01:55:47;10.20;;;5.50;;
4529;SDS011;2277;51.626;7.516;2023-10-13T01:58:15;7.60;;;4.63;;
4529;SDS011;2277;51.626;7.516;2023-10-13T02:00:44;11.00;;;5.80;;
4529;SDS011;2277;51.626;7.516;2023-10-13T02:03:12;8.43;;;6.53;;
4529;SDS011;2277;51.626;7.516;2023-10-13T02:05:42;9.13;;;6.53;;
4529;SDS011;2277;51.626;7.516;2023-10-13T02:08:23;11.63;;;5.27;;
4529;SDS011;2277;51.626;7.516;2023-10-13T02:10:50;10.80;;;6.20;;
4529;SDS011;2277;51.626;7.516;2023-10-13T02:13:16;7.93;;;6.87;;
4529;SDS011;2277;51.626;7.516;2023-10-13T02:15:46;9.00;;;5.73;;
4529;SDS011;2277;51.626;7.516;2023-10-13T02:18:16;8.50;;;5.63;;
4529;SDS011;2277;51.626;7.516;2023-10-13T02:20:45;9.67;;;6.93;;
4529;SDS011;2277;51.626;7.516;2023-10-13T02:23:19;9.83;;;5.90;;
4529;SDS011;2277;51.626;7.516;2023-10-13T02:25:45;9.10;;;6.90;;
4529;SDS011;2277;51.626;7.516;2023-10-13T02:28:11;11.33;;;7.73;;
4529;SDS011;2277;51.626;7.516;2023-10-13T02:30:41;7.83;;;5.60;;
4529;SDS011;2277;51.626;7.516;2023-10-13T02:33:13;9.70;;;6.73;;
4529;SDS011;2277;51.626;7.516;2023-10-13T02:35:39;9.37;;;6.43;;
4529;SDS011;2277;51.626;7.516;2023-10-13T02:38:24;7.87;;;6.40;;
4529;SDS011;2277;51.626;7.516;2023-10-13T02:40:59;9.03;;;6.07;;
4529;SDS011;2277;51.626;7.516;2023-10-13T02:43:36;8.70;;;6.70;;
4529;SDS011;2277;51.626;7.516;2023-10-13T02:46:03;9.57;;;6.70;;
4529;SDS011;2277;51.626;7.516;2023-10-13T02:48:29;8.50;;;5.90;;
4529;SDS011;2277;51.626;7.516;2023-10-13T02:51:10;15.23;;;5.57;;
4529;SDS011;2277;51.626;7.516;2023-10-13T02:53:46;9.80;;;6.80;;
4529;SDS011;2277;51.626;7.516;2023-10-13T02:56:13;6.33;;;5.70;;
4529;SDS011;2277;51.626;7.516;2023-10-13T02:58:40;8.27;;;5.40;;
4529;SDS011;2277;51.626;7.516;2023-10-13T03:01:10;7.97;;;5.33;;
4529;SDS011;2277;51.626;7.516;2023-10-13T03:03:43;9.77;;;6.87;;
4529;SDS011;2277;51.626;7.516;2023-10-13T03:06:19;9.87;;;6.53;;
4529;SDS011;2277;51.626;7.516;2023-10-13T03:08:57;10.30;;;6.90;;
4529;SDS011;2277;51.626;7.516;2023-10-13T03:11:46;10.93;;;7.10;;
4529;SDS011;2277;51.626;7.516;2023-10-13T03:16:56;12.17;;;7.60;;
4529;SDS011;2277;51.626;7.516;2023-10-13T03:19:34;9.30;;;6.50;;
4529;SDS011;2277;51.626;7.516;2023-10-13T03:22:04;11.83;;;7.17;;
4529;SDS011;2277;51.626;7.516;2023-10-13T03:24:41;8.40;;;7.60;;
4529;SDS011;2277;51.626;7.516;2023-10-13T03:27:13;8.07;;;5.50;;
4529;SDS011;2277;51.626;7.516;2023-10-13T03:29:42;10.17;;;6.37;;
4529;SDS011;2277;51.626;7.516;2023-10-13T03:32:12;7.10;;;5.93;;
4529;SDS011;2277;51.626;7.516;2023-10-13T03:34:42;11.13;;;7.17;;
4529;SDS011;2277;51.626;7.516;2023-10-13T03:37:17;8.70;;;6.20;;
4529;SDS011;2277;51.626;7.516;2023-10-13T03:40:03;10.00;;;7.00;;
4529;SDS011;2277;51.626;7.516;2023-10-13T03:43:00;7.43;;;5.73;;
4529;SDS011;2277;51.626;7.516;2023-10-13T03:45:38;9.40;;;7.20;;
4529;SDS011;2277;51.626;7.516;2023-10-13T03:48:07;10.23;;;7.53;;
4529;SDS011;2277;51.626;7.516;2023-10-13T03:50:53;12.23;;;6.20;;
4529;SDS011;2277;51.626;7.516;2023-10-13T03:53:34;8.60;;;6.90;;
4529;SDS011;2277;51.626;7.516;2023-10-13T03:56:19;10.23;;;5.73;;
4529;SDS011;2277;51.626;7.516;2023-10-13T03:58:53;7.90;;;5.80;;
4529;SDS011;2277;51.626;7.516;2023-10-13T04:01:19;6.13;;;5.63;;
4529;SDS011;2277;51.626;7.516;2023-10-13T04:03:56;9.27;;;5.90;;
4529;SDS011;2277;51.626;7.516;2023-10-13T04:06:28;13.20;;;7.10;;
4529;SDS011;2277;51.626;7.516;2023-10-13T04:09:09;10.93;;;7.40;;
4529;SDS011;2277;51.626;7.516;2023-10-13T04:11:57;12.90;;;7.90;;
4529;SDS011;2277;51.626;7.516;2023-10-13T04:14:26;11.83;;;8.47;;
4529;SDS011;2277;51.626;7.516;2023-10-13T04:17:14;12.17;;;8.83;;
4529;SDS011;2277;51.626;7.516;2023-10-13T04:19:40;8.80;;;7.90;;
4529;SDS011;2277;51.626;7.516;2023-10-13T04:22:27;11.43;;;8.13;;
4529;SDS011;2277;51.626;7.516;2023-10-13T04:25:20;19.10;;;9.20;;
4529;SDS011;2277;51.626;7.516;2023-10-13T04:30:53;10.90;;;7.00;;
4529;SDS011;2277;51.626;7.516;2023-10-13T04:33:21;10.37;;;7.37;;
4529;SDS011;2277;51.626;7.516;2023-10-13T04:36:06;10.43;;;7.30;;
4529;SDS011;2277;51.626;7.516;2023-10-13T04:38:45;8.70;;;7.00;;
4529;SDS011;2277;51.626;7.516;2023-10-13T04:41:29;9.50;;;7.50;;
4529;SDS011;2277;51.626;7.516;2023-10-13T04:44:06;10.90;;;6.50;;
4529;SDS011;2277;51.626;7.516;2023-10-13T04:46:48;10.63;;;6.83;;
4529;SDS011;2277;51.626;7.516;2023-10-13T04:49:14;10.70;;;6.10;;
4529;SDS011;2277;51.626;7.516;2023-10-13T04:51:56;9.00;;;6.70;;
4529;SDS011;2277;51.626;7.516;2023-10-13T04:54:43;9.23;;;5.93;;
4529;SDS011;2277;51.626;7.516;2023-10-13T04:57:13;7.47;;;5.37;;
4529;SDS011;2277;51.626;7.516;2023-10-13T04:59:59;7.53;;;5.53;;
4529;SDS011;2277;51.626;7.516;2023-10-13T05:02:29;8.37;;;5.60;;
4529;SDS011;2277;51.626;7.516;2023-10-13T05:05:08;7.50;;;5.77;;
4529;SDS011;2277;51.626;7.516;2023-10-13T05:07:55;10.70;;;6.97;;
4529;SDS011;2277;51.626;7.516;2023-10-13T05:10:39;13.93;;;7.37;;
4529;SDS011;2277;51.626;7.516;2023-10-13T05:13:23;10.33;;;7.17;;
4529;SDS011;2277;51.626;7.516;2023-10-13T05:16:07;7.40;;;5.70;;
4529;SDS011;2277;51.626;7.516;2023-10-13T05:18:51;7.40;;;6.30;;
4529;SDS011;2277;51.626;7.516;2023-10-13T05:21:35;8.93;;;7.50;;
4529;SDS011;2277;51.626;7.516;2023-10-13T05:24:19;16.70;;;8.73;;
4529;SDS011;2277;51.626;7.516;2023-10-13T05:27:03;9.73;;;8.37;;
4529;SDS011;2277;51.626;7.516;2023-10-13T05:29:47;14.53;;;8.80;;
4529;SDS011;2277;51.626;7.516;2023-10-13T05:32:32;13.47;;;7.70;;
4529;SDS011;2277;51.626;7.516;2023-10-13T05:35:16;10.93;;;6.80;;
4529;SDS011;2277;51.626;7.516;2023-10-13T05:38:02;10.20;;;7.60;;
4529;SDS011;2277;51.626;7.516;2023-10-13T05:40:56;14.30;;;7.47;;
4529;SDS011;2277;51.626;7.516;2023-10-13T05:43:42;9.57;;;6.80;;
4529;SDS011;2277;51.626;7.516;2023-10-13T05:46:27;12.37;;;7.23;;
4529;SDS011;2277;51.626;7.516;2023-10-13T05:48:53;8.80;;;6.63;;
4529;SDS011;2277;51.626;7.516;2023-10-13T05:54:00;13.83;;;7.03;;
4529;SDS011;2277;51.626;7.516;2023-10-13T05:59:23;8.13;;;7.00;;
4529;SDS011;2277;51.626;7.516;2023-10-13T06:02:08;13.43;;;9.70;;
4529;SDS011;2277;51.626;7.516;2023-10-13T06:04:52;12.50;;;8.10;;
4529;SDS011;2277;51.626;7.516;2023-10-13T06:07:36;8.00;;;6.70;;
4529;SDS011;2277;51.626;7.516;2023-10-13T06:10:20;9.07;;;7.20;;
4529;SDS011;2277;51.626;7.516;2023-10-13T06:13:04;7.13;;;6.27;;
4529;SDS011;2277;51.626;7.516;2023-10-13T06:15:48;14.10;;;6.63;;
4529;SDS011;2277;51.626;7.516;2023-10-13T06:18:32;8.07;;;5.53;;
4529;SDS011;2277;51.626;7.516;2023-10-13T06:21:16;8.00;;;6.00;;
4529;SDS011;2277;51.626;7.516;2023-10-13T06:24:00;8.60;;;6.30;;
4529;SDS011;2277;51.626;7.516;2023-10-13T06:26:46;7.10;;;6.20;;
4529;SDS011;2277;51.626;7.516;2023-10-13T06:29:31;6.97;;;5.33;;
4529;SDS011;2277;51.626;7.516;2023-10-13T06:31:58;8.00;;;5.80;;
4529;SDS011;2277;51.626;7.516;2023-10-13T06:34:26;14.00;;;5.30;;
4529;SDS011;2277;51.626;7.516;2023-10-13T06:37:04;8.57;;;5.33;;
4529;SDS011;2277;51.626;7.516;2023-10-13T06:39:47;10.13;;;5.07;;
4529;SDS011;2277;51.626;7.516;2023-10-13T06:42:16;8.97;;;6.50;;
4529;SDS011;2277;51.626;7.516;2023-10-13T06:44:43;8.07;;;5.57;;
4529;SDS011;2277;51.626;7.516;2023-10-13T06:47:11;10.73;;;5.80;;
4529;SDS011;2277;51.626;7.516;2023-10-13T06:49:40;5.80;;;4.43;;
4529;SDS011;2277;51.626;7.516;2023-10-13T06:52:08;6.60;;;5.20;;
4529;SDS011;2277;51.626;7.516;2023-10-13T06:54:35;10.63;;;4.70;;
4529;SDS011;2277;51.626;7.516;2023-10-13T06:57:04;9.63;;;4.47;;
4529;SDS011;2277;51.626;7.516;2023-10-13T06:59:32;6.27;;;5.20;;
4529;SDS011;2277;51.626;7.516;2023-10-13T07:02:05;9.97;;;5.67;;
4529;SDS011;2277;51.626;7.516;2023-10-13T07:04:33;6.43;;;3.80;;
4529;SDS011;2277;51.626;7.516;2023-10-13T07:06:59;6.50;;;4.33;;
4529;SDS011;2277;51.626;7.516;2023-10-13T07:09:26;6.83;;;5.10;;
4529;SDS011;2277;51.626;7.516;2023-10-13T07:12:01;7.57;;;4.70;;
4529;SDS011;2277;51.626;7.516;2023-10-13T07:14:50;9.90;;;5.00;;
4529;SDS011;2277;51.626;7.516;2023-10-13T07:17:39;6.70;;;4.67;;
4529;SDS011;2277;51.626;7.516;2023-10-13T07:20:06;6.60;;;4.03;;
4529;SDS011;2277;51.626;7.516;2023-10-13T07:22:51;7.03;;;5.53;;
4529;SDS011;2277;51.626;7.516;2023-10-13T07:25:28;7.37;;;5.10;;
4529;SDS011;2277;51.626;7.516;2023-10-13T07:28:05;6.83;;;4.23;;
4529;SDS011;2277;51.626;7.516;2023-10-13T07:30:35;9.80;;;4.20;;
4529;SDS011;2277;51.626;7.516;2023-10-13T07:33:14;6.43;;;4.57;;
4529;SDS011;2277;51.626;7.516;2023-10-13T07:35:45;8.27;;;4.73;;
4529;SDS011;2277;51.626;7.516;2023-10-13T07:38:24;4.40;;;4.00;;
4529;SDS011;2277;51.626;7.516;2023-10-13T07:40:55;7.60;;;4.10;;
4529;SDS011;2277;51.626;7.516;2023-10-13T07:43:25;5.60;;;3.67;;
4529;SDS011;2277;51.626;7.516;2023-10-13T07:45:52;7.03;;;5.10;;
4529;SDS011;2277;51.626;7.516;2023-10-13T07:48:23;5.70;;;4.53;;
4529;SDS011;2277;51.626;7.516;2023-10-13T07:51:03;5.30;;;4.80;;
4529;SDS011;2277;51.626;7.516;2023-10-13T07:53:34;6.60;;;5.20;;
4529;SDS011;2277;51.626;7.516;2023-10-13T07:56:00;7.50;;;5.67;;
4529;SDS011;2277;51.626;7.516;2023-10-13T07:58:39;7.13;;;5.30;;
4529;SDS011;2277;51.626;7.516;2023-10-13T08:01:23;6.40;;;5.40;;
4529;SDS011;2277;51.626;7.516;2023-10-13T08:03:50;8.97;;;4.67;;
4529;SDS011;2277;51.626;7.516;2023-10-13T08:06:29;5.87;;;4.90;;
4529;SDS011;2277;51.626;7.516;2023-10-13T08:08:55;8.93;;;4.90;;
4529;SDS011;2277;51.626;7.516;2023-10-13T08:11:34;6.23;;;4.70;;
4529;SDS011;2277;51.626;7.516;2023-10-13T08:14:02;6.93;;;4.90;;
4529;SDS011;2277;51.626;7.516;2023-10-13T08:16:47;8.60;;;4.90;;
4529;SDS011;2277;51.626;7.516;2023-10-13T08:19:13;11.93;;;6.97;;
4529;SDS011;2277;51.626;7.516;2023-10-13T08:21:40;18.37;;;7.83;;
4529;SDS011;2277;51.626;7.516;2023-10-13T08:24:15;9.80;;;7.70;;
4529;SDS011;2277;51.626;7.516;2023-10-13T08:26:41;13.50;;;6.93;;
4529;SDS011;2277;51.626;7.516;2023-10-13T08:29:40;10.40;;;7.10;;
4529;SDS011;2277;51.626;7.516;2023-10-13T08:32:25;10.93;;;6.10;;
4529;SDS011;2277;51.626;7.516;2023-10-13T08:37:23;8.60;;;5.77;;
4529;SDS011;2277;51.626;7.516;2023-10-13T08:39:53;5.70;;;4.70;;
4529;SDS011;2277;51.626;7.516;2023-10-13T08:45:05;17.37;;;8.13;;
4529;SDS011;2277;51.626;7.516;2023-10-13T08:47:51;16.07;;;6.30;;
4529;SDS011;2277;51.626;7.516;2023-10-13T08:50:22;9.50;;;5.70;;
4529;SDS011;2277;51.626;7.516;2023-10-13T08:53:12;7.53;;;5.20;;
4529;SDS011;2277;51.626;7.516;2023-10-13T08:58:26;11.10;;;5.53;;
4529;SDS011;2277;51.626;7.516;2023-10-13T09:01:11;7.70;;;5.93;;
4529;SDS011;2277;51.626;7.516;2023-10-13T09:03:38;8.73;;;4.50;;
4529;SDS011;2277;51.626;7.516;2023-10-13T09:06:06;7.60;;;4.47;;
4529;SDS011;2277;51.626;7.516;2023-10-13T09:08:39;12.37;;;4.80;;
4529;SDS011;2277;51.626;7.516;2023-10-13T09:11:44;7.70;;;4.00;;
4529;SDS011;2277;51.626;7.516;2023-10-13T09:14:18;8.90;;;3.90;;
4529;SDS011;2277;51.626;7.516;2023-10-13T09:17:01;10.77;;;4.70;;
4529;SDS011;2277;51.626;7.516;2023-10-13T09:19:46;11.23;;;5.00;;
4529;SDS011;2277;51.626;7.516;2023-10-13T09:22:20;8.90;;;3.27;;
4529;SDS011;2277;51.626;7.516;2023-10-13T09:25:01;7.93;;;4.83;;
4529;SDS011;2277;51.626;7.516;2023-10-13T09:27:30;12.90;;;4.40;;
4529;SDS011;2277;51.626;7.516;2023-10-13T09:30:03;8.67;;;3.80;;
4529;SDS011;2277;51.626;7.516;2023-10-13T09:32:35;10.50;;;4.30;;
4529;SDS011;2277;51.626;7.516;2023-10-13T09:35:18;9.83;;;6.03;;
4529;SDS011;2277;51.626;7.516;2023-10-13T09:37:48;9.07;;;3.70;;
4529;SDS011;2277;51.626;7.516;2023-10-13T09:40:15;14.60;;;4.93;;
4529;SDS011;2277;51.626;7.516;2023-10-13T09:43:11;12.93;;;4.47;;
4529;SDS011;2277;51.626;7.516;2023-10-13T09:45:40;6.10;;;3.70;;
4529;SDS011;2277;51.626;7.516;2023-10-13T09:48:22;11.40;;;4.00;;
4529;SDS011;2277;51.626;7.516;2023-10-13T09:50:53;11.73;;;4.30;;
4529;SDS011;2277;51.626;7.516;2023-10-13T09:53:24;8.80;;;4.37;;
4529;SDS011;2277;51.626;7.516;2023-10-13T09:55:51;11.73;;;4.57;;
4529;SDS011;2277;51.626;7.516;2023-10-13T09:58:25;12.90;;;4.23;;
4529;SDS011;2277;51.626;7.516;2023-10-13T10:01:01;7.93;;;4.73;;
4529;SDS011;2277;51.626;7.516;2023-10-13T10:03:45;13.23;;;4.03;;
4529;SDS011;2277;51.626;7.516;2023-10-13T10:06:30;9.83;;;4.00;;
4529;SDS011;2277;51.626;7.516;2023-10-13T10:09:04;6.30;;;4.10;;
4529;SDS011;2277;51.626;7.516;2023-10-13T10:17:53;9.23;;;5.50;;
4529;SDS011;2277;51.626;7.516;2023-10-13T10:20:27;10.33;;;3.70;;
4529;SDS011;2277;51.626;7.516;2023-10-13T10:23:10;9.87;;;4.10;;
4529;SDS011;2277;51.626;7.516;2023-10-13T10:25:48;15.20;;;5.10;;
4529;SDS011;2277;51.626;7.516;2023-10-13T10:28:16;9.83;;;4.77;;
4529;SDS011;2277;51.626;7.516;2023-10-13T10:30:42;6.50;;;4.10;;
4529;SDS011;2277;51.626;7.516;2023-10-13T10:33:09;7.37;;;4.17;;
4529;SDS011;2277;51.626;7.516;2023-10-13T10:35:41;10.50;;;4.67;;
4529;SDS011;2277;51.626;7.516;2023-10-13T10:40:47;8.43;;;3.90;;
4529;SDS011;2277;51.626;7.516;2023-10-13T10:43:37;12.47;;;5.57;;
4529;SDS011;2277;51.626;7.516;2023-10-13T10:48:41;8.47;;;4.73;;
4529;SDS011;2277;51.626;7.516;2023-10-13T10:51:10;9.97;;;4.73;;
4529;SDS011;2277;51.626;7.516;2023-10-13T10:53:46;15.27;;;4.70;;
4529;SDS011;2277;51.626;7.516;2023-10-13T10:56:14;11.70;;;5.67;;
4529;SDS011;2277;51.626;7.516;2023-10-13T10:59:10;10.30;;;5.70;;
4529;SDS011;2277;51.626;7.516;2023-10-13T11:01:45;8.47;;;5.33;;
4529;SDS011;2277;51.626;7.516;2023-10-13T11:04:17;10.33;;;5.83;;
4529;SDS011;2277;51.626;7.516;2023-10-13T11:09:23;9.10;;;6.57;;
4529;SDS011;2277;51.626;7.516;2023-10-13T11:12:18;12.90;;;5.33;;
4529;SDS011;2277;51.626;7.516;2023-10-13T11:17:58;6.80;;;4.77;;
4529;SDS011;2277;51.626;7.516;2023-10-13T11:20:24;9.43;;;5.30;;
4529;SDS011;2277;51.626;7.516;2023-10-13T11:23:00;7.73;;;5.40;;
4529;SDS011;2277;51.626;7.516;2023-10-13T11:25:29;9.10;;;4.33;;
4529;SDS011;2277;51.626;7.516;2023-10-13T11:28:09;11.47;;;4.57;;
4529;SDS011;2277;51.626;7.516;2023-10-13T11:30:42;7.20;;;5.70;;
4529;SDS011;2277;51.626;7.516;2023-10-13T11:33:17;7.07;;;5.40;;
4529;SDS011;2277;51.626;7.516;2023-10-13T11:35:48;5.70;;;4.80;;
4529;SDS011;2277;51.626;7.516;2023-10-13T11:38:14;5.67;;;4.47;;
4529;SDS011;2277;51.626;7.516;2023-10-13T11:40:49;12.93;;;5.77;;
4529;SDS011;2277;51.626;7.516;2023-10-13T11:43:31;16.73;;;4.70;;
4529;SDS011;2277;51.626;7.516;2023-10-13T11:46:07;10.53;;;5.13;;
4529;SDS011;2277;51.626;7.516;2023-10-13T11:48:34;8.20;;;5.00;;
4529;SDS011;2277;51.626;7.516;2023-10-13T11:51:01;10.57;;;5.97;;
4529;SDS011;2277;51.626;7.516;2023-10-13T11:53:36;6.20;;;5.10;;
4529;SDS011;2277;51.626;7.516;2023-10-13T11:56:03;12.70;;;6.10;;
4529;SDS011;2277;51.626;7.516;2023-10-13T11:58:37;8.13;;;5.87;;
4529;SDS011;2277;51.626;7.516;2023-10-13T12:01:04;15.27;;;6.07;;
4529;SDS011;2277;51.626;7.516;2023-10-13T12:03:36;9.40;;;4.80;;
4529;SDS011;2277;51.626;7.516;2023-10-13T12:06:20;7.10;;;3.37;;
4529;SDS011;2277;51.626;7.516;2023-10-13T12:09:01;9.83;;;4.60;;
4529;SDS011;2277;51.626;7.516;2023-10-13T12:11:45;16.20;;;6.03;;
4529;SDS011;2277;51.626;7.516;2023-10-13T12:14:15;5.33;;;4.40;;
4529;SDS011;2277;51.626;7.516;2023-10-13T12:16:54;8.27;;;4.83;;
4529;SDS011;2277;51.626;7.516;2023-10-13T12:19:21;9.90;;;4.30;;
4529;SDS011;2277;51.626;7.516;2023-10-13T12:21:49;12.00;;;5.43;;
4529;SDS011;2277;51.626;7.516;2023-10-13T12:24:32;7.17;;;5.13;;
4529;SDS011;2277;51.626;7.516;2023-10-13T12:27:04;6.57;;;5.10;;
4529;SDS011;2277;51.626;7.516;2023-10-13T12:29:48;8.03;;;4.77;;
4529;SDS011;2277;51.626;7.516;2023-10-13T12:32:16;7.13;;;4.50;;
4529;SDS011;2277;51.626;7.516;2023-10-13T12:34:47;13.80;;;5.23;;
4529;SDS011;2277;51.626;7.516;2023-10-13T12:37:26;10.57;;;5.13;;
4529;SDS011;2277;51.626;7.516;2023-10-13T12:42:48;11.60;;;6.30;;
4529;SDS011;2277;51.626;7.516;2023-10-13T12:45:33;11.50;;;5.73;;
4529;SDS011;2277;51.626;7.516;2023-10-13T12:48:21;10.93;;;4.73;;
4529;SDS011;2277;51.626;7.516;2023-10-13T12:51:05;9.17;;;4.77;;
4529;SDS011;2277;51.626;7.516;2023-10-13T12:53:49;12.53;;;6.53;;
4529;SDS011;2277;51.626;7.516;2023-10-13T12:56:16;7.77;;;5.37;;
4529;SDS011;2277;51.626;7.516;2023-10-13T12:58:43;7.50;;;4.80;;
4529;SDS011;2277;51.626;7.516;2023-10-13T13:01:19;28.90;;;10.50;;
4529;SDS011;2277;51.626;7.516;2023-10-13T13:03:48;18.70;;;5.27;;
4529;SDS011;2277;51.626;7.516;2023-10-13T13:06:21;16.07;;;5.50;;
4529;SDS011;2277;51.626;7.516;2023-10-13T13:08:53;13.43;;;5.60;;
4529;SDS011;2277;51.626;7.516;2023-10-13T13:11:20;10.93;;;5.23;;
4529;SDS011;2277;51.626;7.516;2023-10-13T13:13:46;12.50;;;5.30;;
4529;SDS011;2277;51.626;7.516;2023-10-13T13:16:15;11.57;;;5.90;;
4529;SDS011;2277;51.626;7.516;2023-10-13T13:18:49;7.97;;;4.93;;
4529;SDS011;2277;51.626;7.516;2023-10-13T13:21:15;9.73;;;5.50;;
4529;SDS011;2277;51.626;7.516;2023-10-13T13:23:46;10.07;;;4.80;;
4529;SDS011;2277;51.626;7.516;2023-10-13T13:26:12;10.87;;;6.17;;
4529;SDS011;2277;51.626;7.516;2023-10-13T13:28:46;12.07;;;5.13;;
4529;SDS011;2277;51.626;7.516;2023-10-13T13:31:22;8.87;;;4.90;;
4529;SDS011;2277;51.626;7.516;2023-10-13T13:33:54;8.27;;;4.97;;
4529;SDS011;2277;51.626;7.516;2023-10-13T13:36:20;10.27;;;4.57;;
4529;SDS011;2277;51.626;7.516;2023-10-13T13:38:47;11.10;;;5.50;;
4529;SDS011;2277;51.626;7.516;2023-10-13T13:41:16;11.50;;;4.67;;
4529;SDS011;2277;51.626;7.516;2023-10-13T13:43:46;9.10;;;5.20;;
4529;SDS011;2277;51.626;7.516;2023-10-13T13:46:20;12.87;;;5.00;;
4529;SDS011;2277;51.626;7.516;2023-10-13T13:48:53;11.77;;;5.17;;
4529;SDS011;2277;51.626;7.516;2023-10-13T13:51:32;8.07;;;5.00;;
4529;SDS011;2277;51.626;7.516;2023-10-13T13:53:58;12.30;;;5.60;;
4529;SDS011;2277;51.626;7.516;2023-10-13T13:56:25;17.03;;;4.90;;
4529;SDS011;2277;51.626;7.516;2023-10-13T13:58:53;11.67;;;6.37;;
4529;SDS011;2277;51.626;7.516;2023-10-13T14:01:20;7.83;;;5.13;;
4529;SDS011;2277;51.626;7.516;2023-10-13T14:03:47;12.03;;;4.63;;
4529;SDS011;2277;51.626;7.516;2023-10-13T14:06:18;18.80;;;5.67;;
4529;SDS011;2277;51.626;7.516;2023-10-13T14:08:52;19.23;;;6.13;;
4529;SDS011;2277;51.626;7.516;2023-10-13T14:11:23;7.00;;;5.00;;
4529;SDS011;2277;51.626;7.516;2023-10-13T14:14:06;13.30;;;5.03;;
4529;SDS011;2277;51.626;7.516;2023-10-13T14:16:53;11.57;;;4.60;;
4529;SDS011;2277;51.626;7.516;2023-10-13T14:19:28;10.20;;;4.53;;
4529;SDS011;2277;51.626;7.516;2023-10-13T14:21:54;15.90;;;7.70;;
4529;SDS011;2277;51.626;7.516;2023-10-13T14:24:25;8.73;;;5.30;;
4529;SDS011;2277;51.626;7.516;2023-10-13T14:26:58;8.67;;;5.00;;
4529;SDS011;2277;51.626;7.516;2023-10-13T14:29:32;11.17;;;6.40;;
4529;SDS011;2277;51.626;7.516;2023-10-13T14:31:58;8.80;;;4.93;;
4529;SDS011;2277;51.626;7.516;2023-10-13T14:34:24;11.77;;;4.53;;
4529;SDS011;2277;51.626;7.516;2023-10-13T14:36:51;21.83;;;6.13;;
4529;SDS011;2277;51.626;7.516;2023-10-13T14:39:19;14.00;;;5.53;;
4529;SDS011;2277;51.626;7.516;2023-10-13T14:41:46;11.07;;;4.50;;
4529;SDS011;2277;51.626;7.516;2023-10-13T14:44:12;8.20;;;4.93;;
4529;SDS011;2277;51.626;7.516;2023-10-13T14:46:41;9.77;;;5.33;;
4529;SDS011;2277;51.626;7.516;2023-10-13T14:49:07;10.97;;;4.57;;
4529;SDS011;2277;51.626;7.516;2023-10-13T14:51:33;10.13;;;4.90;;
4529;SDS011;2277;51.626;7.516;2023-10-13T14:54:04;11.43;;;4.63;;
4529;SDS011;2277;51.626;7.516;2023-10-13T14:56:30;20.10;;;5.00;;
4529;SDS011;2277;51.626;7.516;2023-10-13T14:58:55;11.23;;;5.73;;
4529;SDS011;2277;51.626;7.516;2023-10-13T15:01:22;13.80;;;5.03;;
4529;SDS011;2277;51.626;7.516;2023-10-13T15:03:50;9.83;;;4.47;;
4529;SDS011;2277;51.626;7.516;2023-10-13T15:06:23;15.13;;;5.20;;
4529;SDS011;2277;51.626;7.516;2023-10-13T15:08:51;11.53;;;5.43;;
4529;SDS011;2277;51.626;7.516;2023-10-13T15:11:21;12.60;;;5.07;;
4529;SDS011;2277;51.626;7.516;2023-10-13T15:13:51;10.90;;;5.67;;
4529;SDS011;2277;51.626;7.516;2023-10-13T15:16:18;9.70;;;4.83;;
4529;SDS011;2277;51.626;7.516;2023-10-13T15:18:46;18.73;;;5.37;;
4529;SDS011;2277;51.626;7.516;2023-10-13T15:21:18;10.53;;;4.90;;
4529;SDS011;2277;51.626;7.516;2023-10-13T15:23:49;15.20;;;5.40;;
4529;SDS011;2277;51.626;7.516;2023-10-13T15:26:19;15.00;;;5.03;;
4529;SDS011;2277;51.626;7.516;2023-10-13T15:28:48;10.30;;;5.03;;
4529;SDS011;2277;51.626;7.516;2023-10-13T15:31:17;11.53;;;3.87;;
4529;SDS011;2277;51.626;7.516;2023-10-13T15:34:12;11.00;;;5.57;;
4529;SDS011;2277;51.626;7.516;2023-10-13T15:36:41;15.13;;;5.63;;
4529;SDS011;2277;51.626;7.516;2023-10-13T15:39:11;10.30;;;4.67;;
4529;SDS011;2277;51.626;7.516;2023-10-13T15:41:40;13.20;;;5.67;;
4529;SDS011;2277;51.626;7.516;2023-10-13T15:44:12;10.40;;;4.90;;
4529;SDS011;2277;51.626;7.516;2023-10-13T15:46:38;8.60;;;4.73;;
4529;SDS011;2277;51.626;7.516;2023-10-13T15:49:05;9.67;;;4.87;;
4529;SDS011;2277;51.626;7.516;2023-10-13T15:51:34;7.77;;;5.13;;
4529;SDS011;2277;51.626;7.516;2023-10-13T15:54:02;9.30;;;5.43;;
4529;SDS011;2277;51.626;7.516;2023-10-13T15:56:49;10.00;;;6.13;;
4529;SDS011;2277;51.626;7.516;2023-10-13T15:59:19;7.87;;;4.20;;
4529;SDS011;2277;51.626;7.516;2023-10-13T16:01:48;7.70;;;4.10;;
4529;SDS011;2277;51.626;7.516;2023-10-13T16:04:13;17.80;;;5.63;;
4529;SDS011;2277;51.626;7.516;2023-10-13T16:06:40;10.10;;;4.33;;
4529;SDS011;2277;51.626;7.516;2023-10-13T16:09:07;7.93;;;3.93;;
4529;SDS011;2277;51.626;7.516;2023-10-13T16:11:48;9.83;;;4.33;;
4529;SDS011;2277;51.626;7.516;2023-10-13T16:14:14;12.80;;;5.03;;
4529;SDS011;2277;51.626;7.516;2023-10-13T16:16:41;11.03;;;4.70;;
4529;SDS011;2277;51.626;7.516;2023-10-13T16:19:11;9.23;;;4.17;;
4529;SDS011;2277;51.626;7.516;2023-10-13T16:21:46;11.40;;;4.67;;
4529;SDS011;2277;51.626;7.516;2023-10-13T16:24:13;13.53;;;5.83;;
4529;SDS011;2277;51.626;7.516;2023-10-13T16:26:45;6.83;;;4.17;;
4529;SDS011;2277;51.626;7.516;2023-10-13T16:29:15;8.83;;;5.43;;
4529;SDS011;2277;51.626;7.516;2023-10-13T16:31:41;14.20;;;4.60;;